PSB weather

Mid-State Regional Airport
Philipsburg, Pennsylvania, United States

Public forecast

Using degrees Fahrenheit for public forecast. Weather courtesy of forecast.io.

METAR (pilot weather report)

Closest report is University Park Airport, 11.0 nm (20.4 km) E. Retrieved 2019/07/17 19:25 UTC (14 minutes ago):

KUNV 171925Z 19007KT 5SM RA SCT042 OVC055 25/22 A2995 RMK VIS S-SE 2

TAF (pilot weather forecast)

Forecast is more than 6 hours old.

Closest forecast is University Park Airport, 11.0 nm (20.4 km) E. Retrieved 2019/07/17 12:48 UTC (7 hours ago):

TAF KUNV 171146Z 1712/1812 VRB03KT P6SM SCT050 BKN100 FM171500 23005KT 6SM HZ SCT050 BKN100 FM171900 23007KT 5SM SHRA HZ VCTS OVC050CB FM180000 24004KT 4SM -SHRA BR OVC030 FM180600 VRB02KT 2SM BR OVC010